createdAt,value
2023-03-05T00:00:54.536Z,12.05
2023-03-05T00:03:21.254Z,12.40
2023-03-05T00:05:47.977Z,11.32
2023-03-05T00:08:14.639Z,11.65
2023-03-05T00:10:41.318Z,11.70
2023-03-05T00:13:08.189Z,11.93
2023-03-05T00:15:41.356Z,12.25
2023-03-05T00:18:08.059Z,13.75
2023-03-05T00:20:35.092Z,12.63
2023-03-05T00:23:02.170Z,11.90
2023-03-05T00:25:28.785Z,13.05
2023-03-05T00:27:55.421Z,14.25
2023-03-05T00:30:22.118Z,13.30
2023-03-05T00:32:48.687Z,14.48
2023-03-05T00:35:15.427Z,13.75
2023-03-05T00:37:42.048Z,13.00
2023-03-05T00:40:09.817Z,13.20
2023-03-05T00:42:38.774Z,12.98
2023-03-05T00:45:07.170Z,11.73
2023-03-05T00:47:34.145Z,13.90
2023-03-05T00:50:01.414Z,11.90
2023-03-05T00:52:28.225Z,12.43
2023-03-05T00:54:54.813Z,11.70
2023-03-05T00:57:21.717Z,11.73
2023-03-05T00:59:48.510Z,11.55
2023-03-05T01:02:15.449Z,13.77
2023-03-05T01:04:45.910Z,12.32
2023-03-05T01:07:12.878Z,12.40
2023-03-05T01:09:39.525Z,12.52
2023-03-05T01:12:06.427Z,11.95
2023-03-05T01:14:34.705Z,11.57
2023-03-05T01:17:01.784Z,12.07
2023-03-05T01:19:28.617Z,11.57
2023-03-05T01:21:57.863Z,11.68
2023-03-05T01:24:24.502Z,11.75
2023-03-05T01:26:51.248Z,10.52
2023-03-05T01:29:17.866Z,10.25
2023-03-05T01:31:44.574Z,11.60
2023-03-05T01:34:11.292Z,10.88
2023-03-05T01:36:37.920Z,11.35
2023-03-05T01:39:04.542Z,10.75
2023-03-05T01:41:31.248Z,11.05
2023-03-05T01:43:57.853Z,10.68
2023-03-05T01:46:36.272Z,11.27
2023-03-05T01:49:15.443Z,11.50
2023-03-05T01:51:45.267Z,12.02
2023-03-05T01:54:15.490Z,11.88
2023-03-05T01:56:43.991Z,10.75
2023-03-05T01:59:12.290Z,10.75
2023-03-05T02:01:42.775Z,12.40
2023-03-05T02:04:14.101Z,12.27
2023-03-05T02:06:42.642Z,12.00
2023-03-05T02:09:09.880Z,12.35
2023-03-05T02:11:36.890Z,11.13
2023-03-05T02:14:05.317Z,11.60
2023-03-05T02:16:36.904Z,12.52
2023-03-05T02:19:06.441Z,12.07
2023-03-05T02:21:40.085Z,11.38
2023-03-05T02:24:11.412Z,11.27
2023-03-05T02:26:38.174Z,11.95
2023-03-05T02:29:07.726Z,12.10
2023-03-05T02:31:34.513Z,11.10
2023-03-05T02:34:01.206Z,11.77
2023-03-05T02:36:27.900Z,10.70
2023-03-05T02:38:57.118Z,11.35
2023-03-05T02:41:24.723Z,11.15
2023-03-05T02:43:51.734Z,10.68
2023-03-05T02:46:18.357Z,10.60
2023-03-05T02:48:45.098Z,10.73
2023-03-05T02:51:11.813Z,11.52
2023-03-05T02:53:38.446Z,10.30
2023-03-05T02:56:05.410Z,11.13
2023-03-05T02:58:32.016Z,10.73
2023-03-05T03:00:58.784Z,10.55
2023-03-05T03:03:25.654Z,12.38
2023-03-05T03:05:52.413Z,10.25
2023-03-05T03:08:19.187Z,10.35
2023-03-05T03:10:45.932Z,9.45
2023-03-05T03:13:12.548Z,10.27
2023-03-05T03:15:40.430Z,10.70
2023-03-05T03:18:07.222Z,10.75
2023-03-05T03:20:35.036Z,12.80
2023-03-05T03:23:01.985Z,11.75
2023-03-05T03:25:28.681Z,10.20
2023-03-05T03:27:55.414Z,11.63
2023-03-05T03:30:22.124Z,11.50
2023-03-05T03:32:48.786Z,9.95
2023-03-05T03:35:15.396Z,9.52
2023-03-05T03:37:42.040Z,11.88
2023-03-05T03:40:09.691Z,11.63
2023-03-05T03:42:36.331Z,10.57
2023-03-05T03:45:03.375Z,10.52
2023-03-05T03:47:31.257Z,11.18
2023-03-05T03:49:59.084Z,9.98
2023-03-05T03:52:26.595Z,9.50
2023-03-05T03:54:53.766Z,9.32
2023-03-05T03:57:20.564Z,9.18
2023-03-05T03:59:47.637Z,10.00
2023-03-05T04:02:14.335Z,9.75
2023-03-05T04:04:41.114Z,10.18
2023-03-05T04:07:08.366Z,11.82
2023-03-05T04:09:34.972Z,11.25
2023-03-05T04:12:02.693Z,11.50
2023-03-05T04:14:29.392Z,10.75
2023-03-05T04:16:56.041Z,10.80
2023-03-05T04:19:23.821Z,10.55
2023-03-05T04:21:50.437Z,9.82
2023-03-05T04:24:17.118Z,11.13
2023-03-05T04:26:44.008Z,11.52
2023-03-05T04:29:10.668Z,10.65
2023-03-05T04:31:37.292Z,11.48
2023-03-05T04:34:03.904Z,10.82
2023-03-05T04:36:30.517Z,11.05
2023-03-05T04:38:57.174Z,11.05
2023-03-05T04:41:24.786Z,10.70
2023-03-05T04:43:51.428Z,11.32
2023-03-05T04:46:18.060Z,10.13
2023-03-05T04:48:44.702Z,13.50
2023-03-05T04:51:11.379Z,11.43
2023-03-05T04:53:38.015Z,11.23
2023-03-05T04:56:05.057Z,10.00
2023-03-05T04:58:31.718Z,11.27
2023-03-05T05:01:02.776Z,10.57
2023-03-05T05:03:29.523Z,11.43
2023-03-05T05:05:58.155Z,11.20
2023-03-05T05:08:25.285Z,11.60
2023-03-05T05:10:59.322Z,10.45
2023-03-05T05:13:26.177Z,10.55
2023-03-05T05:15:52.983Z,10.95
2023-03-05T05:18:19.713Z,10.70
2023-03-05T05:20:46.591Z,11.23
2023-03-05T05:23:13.831Z,10.85
2023-03-05T05:25:40.545Z,11.10
2023-03-05T05:28:07.317Z,11.13
2023-03-05T05:30:33.926Z,10.02
2023-03-05T05:33:00.565Z,11.38
2023-03-05T05:35:27.290Z,10.88
2023-03-05T05:37:54.051Z,10.90
2023-03-05T05:40:23.299Z,10.25
2023-03-05T05:42:50.000Z,12.30
2023-03-05T05:45:16.707Z,10.82
2023-03-05T05:47:43.450Z,9.88
2023-03-05T05:50:11.449Z,10.45
2023-03-05T05:52:38.499Z,10.63
2023-03-05T05:55:05.805Z,10.93
2023-03-05T05:57:32.426Z,10.60
2023-03-05T05:59:59.023Z,11.20
2023-03-05T06:02:27.714Z,10.75
2023-03-05T06:04:55.417Z,11.77
2023-03-05T06:07:22.782Z,10.65
2023-03-05T06:09:49.370Z,10.90
2023-03-05T06:12:16.070Z,10.98
2023-03-05T06:14:42.693Z,10.93
2023-03-05T06:17:11.289Z,10.05
2023-03-05T06:19:40.322Z,10.48
2023-03-05T06:22:06.988Z,10.75
2023-03-05T06:24:33.732Z,9.45
2023-03-05T06:27:05.436Z,10.32
2023-03-05T06:29:32.260Z,10.05
2023-03-05T06:31:58.974Z,11.00
2023-03-05T06:34:25.640Z,11.75
2023-03-05T06:36:53.341Z,11.27
2023-03-05T06:39:20.035Z,11.15
2023-03-05T06:41:46.669Z,11.57
2023-03-05T06:44:13.393Z,11.00
2023-03-05T06:46:40.149Z,10.55
2023-03-05T06:49:09.624Z,10.90
2023-03-05T06:51:40.271Z,9.90
2023-03-05T06:54:13.452Z,10.52
2023-03-05T06:56:42.631Z,11.38
2023-03-05T06:59:10.750Z,11.15
2023-03-05T07:01:37.713Z,11.57
2023-03-05T07:04:04.994Z,12.18
2023-03-05T07:06:36.649Z,10.88
2023-03-05T07:09:04.803Z,10.55
2023-03-05T07:11:31.952Z,11.02
2023-03-05T07:13:59.265Z,10.68
2023-03-05T07:16:28.360Z,10.90
2023-03-05T07:18:57.288Z,11.10
2023-03-05T07:21:28.355Z,11.07
2023-03-05T07:23:57.193Z,11.82
2023-03-05T07:26:24.398Z,10.55
2023-03-05T07:28:51.307Z,10.52
2023-03-05T07:31:21.129Z,10.90
2023-03-05T07:33:50.009Z,10.45
2023-03-05T07:36:16.987Z,11.25
2023-03-05T07:38:43.600Z,11.77
2023-03-05T07:41:13.714Z,11.15
2023-03-05T07:43:40.616Z,10.93
2023-03-05T07:46:09.902Z,11.45
2023-03-05T07:48:36.846Z,9.65
2023-03-05T07:51:14.863Z,9.57
2023-03-05T07:53:43.576Z,9.27
2023-03-05T07:56:10.839Z,10.02
2023-03-05T07:58:37.818Z,9.93
2023-03-05T08:01:12.545Z,9.88
2023-03-05T08:03:42.270Z,11.02
2023-03-05T08:06:10.171Z,10.15
2023-03-05T08:08:37.794Z,10.55
2023-03-05T08:11:10.229Z,9.70
2023-03-05T08:13:37.835Z,10.30
2023-03-05T08:16:09.568Z,11.32
2023-03-05T08:18:36.247Z,10.35
2023-03-05T08:21:03.350Z,9.95
2023-03-05T08:23:30.413Z,9.57
2023-03-05T08:25:57.091Z,9.35
2023-03-05T08:28:23.812Z,9.85
2023-03-05T08:30:50.585Z,10.18
2023-03-05T08:33:17.750Z,9.63
2023-03-05T08:35:44.836Z,10.65
2023-03-05T08:38:11.799Z,9.07
2023-03-05T08:40:38.448Z,9.35
2023-03-05T08:43:05.927Z,9.15
2023-03-05T08:45:32.563Z,8.52
2023-03-05T08:47:59.225Z,8.98
2023-03-05T08:50:26.144Z,9.30
2023-03-05T08:52:52.862Z,9.27
2023-03-05T08:55:20.678Z,10.07
2023-03-05T08:57:47.311Z,10.82
2023-03-05T09:00:14.420Z,8.45
2023-03-05T09:02:41.167Z,8.70
2023-03-05T09:05:08.400Z,8.85
2023-03-05T09:07:35.070Z,8.02
2023-03-05T09:10:01.939Z,9.10
2023-03-05T09:12:28.679Z,8.15
2023-03-05T09:14:56.321Z,9.38
2023-03-05T09:17:23.690Z,8.00
2023-03-05T09:19:50.465Z,8.52
2023-03-05T09:22:17.131Z,8.40
2023-03-05T09:24:44.132Z,8.77
2023-03-05T09:27:10.968Z,9.20
2023-03-05T09:29:37.996Z,8.85
2023-03-05T09:32:05.074Z,7.85
2023-03-05T09:34:34.658Z,8.65
2023-03-05T09:37:01.321Z,8.77
2023-03-05T09:39:29.375Z,8.50
2023-03-05T09:42:01.905Z,8.15
2023-03-05T09:44:35.044Z,14.65
2023-03-05T09:47:04.707Z,7.85
2023-03-05T09:50:06.314Z,9.02
2023-03-05T09:52:57.219Z,8.65
2023-03-05T09:55:40.406Z,8.88
2023-03-05T09:58:17.956Z,9.38
2023-03-05T10:00:49.938Z,9.85
2023-03-05T10:03:33.265Z,8.15
2023-03-05T10:06:11.158Z,7.82
2023-03-05T10:08:58.086Z,10.27
2023-03-05T10:11:37.717Z,9.13
2023-03-05T10:14:05.526Z,7.70
2023-03-05T10:16:54.979Z,9.00
2023-03-05T10:19:27.741Z,8.77
2023-03-05T10:22:05.129Z,9.10
2023-03-05T10:24:50.116Z,10.18
2023-03-05T10:27:23.204Z,8.45
2023-03-05T10:29:52.978Z,8.60
2023-03-05T10:32:26.258Z,9.90
2023-03-05T10:34:55.818Z,8.85
2023-03-05T10:37:59.026Z,8.48
2023-03-05T10:40:48.046Z,8.77
2023-03-05T10:43:26.003Z,7.72
2023-03-05T10:45:55.181Z,8.20
2023-03-05T10:48:52.950Z,9.27
2023-03-05T10:51:35.261Z,9.98
2023-03-05T10:54:10.677Z,9.10
2023-03-05T10:56:37.676Z,6.97
2023-03-05T10:59:04.271Z,8.15
2023-03-05T11:01:31.973Z,7.88
2023-03-05T11:04:25.298Z,8.05
2023-03-05T11:06:51.987Z,8.13
2023-03-05T11:09:18.549Z,8.55
2023-03-05T11:12:04.561Z,7.57
2023-03-05T11:14:33.556Z,7.25
2023-03-05T11:17:23.758Z,6.45
2023-03-05T11:19:50.549Z,6.38
2023-03-05T11:22:22.286Z,6.15
2023-03-05T11:25:16.144Z,6.75
2023-03-05T11:27:54.583Z,7.25
2023-03-05T11:30:30.474Z,6.80
2023-03-05T11:33:10.450Z,7.00
2023-03-05T11:35:40.094Z,7.05
2023-03-05T11:38:17.224Z,7.70
2023-03-05T11:40:44.245Z,8.55
2023-03-05T11:43:16.493Z,6.50
2023-03-05T11:48:28.713Z,7.72
2023-03-05T11:50:59.150Z,6.95
2023-03-05T11:53:36.932Z,6.82
2023-03-05T11:56:14.671Z,6.20
2023-03-05T11:58:46.495Z,6.97
2023-03-05T12:01:23.499Z,6.50
2023-03-05T12:03:51.772Z,6.40
2023-03-05T12:06:43.000Z,6.30
2023-03-05T12:09:40.944Z,7.10
2023-03-05T12:12:23.726Z,7.97
2023-03-05T12:15:17.592Z,7.03
2023-03-05T12:18:10.934Z,6.80
2023-03-05T12:20:57.459Z,6.88
2023-03-05T12:23:26.991Z,7.43
2023-03-05T12:26:00.022Z,7.03
2023-03-05T12:28:29.467Z,7.00
2023-03-05T12:31:00.177Z,8.02
2023-03-05T12:33:41.804Z,7.60
2023-03-05T12:36:17.652Z,8.03
2023-03-05T12:38:46.373Z,6.80
2023-03-05T12:41:22.231Z,6.78
2023-03-05T12:44:07.514Z,6.53
2023-03-05T12:46:42.591Z,3.22
2023-03-05T12:49:18.074Z,2.28
2023-03-05T12:51:47.422Z,1.90
2023-03-05T12:54:34.102Z,1.48
2023-03-05T12:57:14.073Z,2.10
2023-03-05T12:59:59.269Z,2.78
2023-03-05T13:02:32.029Z,1.98
2023-03-05T13:05:02.559Z,3.20
2023-03-05T13:07:29.252Z,1.98
2023-03-05T13:09:58.826Z,2.38
2023-03-05T13:12:28.057Z,1.83
2023-03-05T13:15:00.165Z,2.00
2023-03-05T13:17:41.517Z,4.15
2023-03-05T13:20:38.491Z,6.40
2023-03-05T13:23:20.649Z,2.90
2023-03-05T13:26:15.731Z,1.90
2023-03-05T13:28:44.973Z,1.73
2023-03-05T13:31:22.490Z,1.80
2023-03-05T13:33:53.315Z,1.63
2023-03-05T13:36:22.726Z,2.28
2023-03-05T13:38:49.619Z,2.80
2023-03-05T13:41:21.653Z,2.20
2023-03-05T13:43:57.285Z,2.00
2023-03-05T13:46:33.170Z,1.10
2023-03-05T13:49:19.101Z,1.40
2023-03-05T13:51:51.720Z,1.10
2023-03-05T13:54:19.517Z,0.80
2023-03-05T13:57:01.882Z,1.00
2023-03-05T14:02:03.927Z,0.80
2023-03-05T14:04:41.606Z,0.82
2023-03-05T14:07:18.857Z,1.80
2023-03-05T14:09:48.734Z,1.10
2023-03-05T14:12:28.026Z,1.05
2023-03-05T14:14:55.004Z,1.27
2023-03-05T14:17:31.970Z,0.77
2023-03-05T14:20:10.183Z,1.00
2023-03-05T14:22:38.908Z,3.20
2023-03-05T14:25:07.510Z,1.20
2023-03-05T14:27:36.437Z,2.50
2023-03-05T14:30:04.948Z,3.75
2023-03-05T14:32:38.033Z,2.33
2023-03-05T14:35:06.617Z,5.05
2023-03-05T14:37:42.159Z,4.75
2023-03-05T14:40:12.265Z,2.17
2023-03-05T14:43:20.582Z,0.75
2023-03-05T14:45:48.013Z,2.03
2023-03-05T14:48:18.757Z,1.38
2023-03-05T14:50:53.226Z,1.25
2023-03-05T14:53:24.040Z,2.10
2023-03-05T14:55:56.701Z,1.45
2023-03-05T14:58:26.300Z,1.85
2023-03-05T15:00:54.065Z,1.00
2023-03-05T15:03:21.880Z,0.70
2023-03-05T15:05:51.250Z,1.30
2023-03-05T15:08:22.114Z,1.65
2023-03-05T15:10:49.655Z,1.85
2023-03-05T15:13:17.264Z,3.05
2023-03-05T15:15:46.228Z,3.42
2023-03-05T15:18:14.321Z,2.20
2023-03-05T15:20:41.074Z,4.60
2023-03-05T15:23:07.800Z,2.70
2023-03-05T15:25:34.471Z,2.55
2023-03-05T15:28:01.934Z,3.25
2023-03-05T15:30:30.599Z,1.65
2023-03-05T15:33:00.240Z,4.40
2023-03-05T15:35:26.982Z,2.00
2023-03-05T15:37:54.085Z,2.60
2023-03-05T15:40:21.559Z,1.83
2023-03-05T15:42:48.749Z,3.53
2023-03-05T15:45:15.884Z,3.13
2023-03-05T15:47:42.755Z,1.42
2023-03-05T15:50:10.238Z,2.30
2023-03-05T15:52:36.881Z,1.90
2023-03-05T15:55:07.242Z,2.30
2023-03-05T15:57:37.533Z,1.80
2023-03-05T16:00:08.564Z,1.80
2023-03-05T16:02:35.676Z,2.75
2023-03-05T16:05:02.439Z,1.80
2023-03-05T16:07:30.413Z,2.38
2023-03-05T16:09:58.589Z,4.68
2023-03-05T16:12:31.291Z,3.30
2023-03-05T16:14:58.023Z,4.75
2023-03-05T16:17:25.116Z,4.50
2023-03-05T16:19:55.578Z,2.08
2023-03-05T16:22:24.180Z,2.08
2023-03-05T16:24:51.276Z,6.05
2023-03-05T16:27:17.990Z,2.25
2023-03-05T16:29:46.031Z,3.83
2023-03-05T16:32:12.916Z,2.80
2023-03-05T16:34:39.623Z,8.45
2023-03-05T16:37:06.969Z,3.70
2023-03-05T16:39:33.770Z,1.50
2023-03-05T16:42:00.465Z,2.50
2023-03-05T16:44:27.181Z,5.07
2023-03-05T16:46:54.140Z,4.90
2023-03-05T16:49:21.297Z,2.25
2023-03-05T16:51:48.323Z,2.53
2023-03-05T16:54:15.196Z,3.53
2023-03-05T16:56:41.926Z,2.55
2023-03-05T16:59:08.716Z,2.80
2023-03-05T17:01:35.417Z,3.72
2023-03-05T17:04:02.307Z,1.88
2023-03-05T17:06:30.533Z,1.63
2023-03-05T17:08:57.631Z,1.90
2023-03-05T17:11:25.794Z,2.45
2023-03-05T17:13:52.581Z,3.40
2023-03-05T17:16:20.129Z,4.30
2023-03-05T17:18:47.778Z,2.78
2023-03-05T17:21:15.345Z,1.63
2023-03-05T17:23:42.556Z,2.22
2023-03-05T17:26:12.046Z,2.85
2023-03-05T17:28:40.147Z,2.53
2023-03-05T17:31:07.383Z,3.05
2023-03-05T17:33:35.420Z,2.22
2023-03-05T17:36:02.697Z,3.90
2023-03-05T17:38:29.521Z,2.67
2023-03-05T17:40:56.303Z,3.85
2023-03-05T17:43:23.815Z,2.92
2023-03-05T17:45:50.588Z,2.80
2023-03-05T17:48:17.366Z,3.17
2023-03-05T17:50:45.193Z,3.05
2023-03-05T17:53:12.734Z,2.92
2023-03-05T17:55:40.521Z,2.70
2023-03-05T17:58:07.977Z,3.80
2023-03-05T18:00:35.028Z,3.78
2023-03-05T18:03:02.193Z,4.88
2023-03-05T18:05:29.351Z,4.80
2023-03-05T18:07:56.527Z,4.45
2023-03-05T18:10:25.818Z,4.30
2023-03-05T18:12:53.205Z,5.25
2023-03-05T18:15:23.052Z,5.55
2023-03-05T18:17:50.326Z,6.57
2023-03-05T18:20:36.225Z,7.30
2023-03-05T18:23:04.765Z,7.15
2023-03-05T18:25:31.917Z,8.40
2023-03-05T18:27:59.375Z,7.85
2023-03-05T18:30:26.679Z,7.13
2023-03-05T18:32:53.648Z,8.20
2023-03-05T18:35:20.451Z,6.60
2023-03-05T18:37:47.152Z,8.27
2023-03-05T18:40:18.728Z,10.23
2023-03-05T18:42:46.017Z,7.80
2023-03-05T18:45:15.539Z,7.95
2023-03-05T18:47:42.678Z,9.20
2023-03-05T18:50:15.022Z,7.20
2023-03-05T18:55:14.663Z,6.53
2023-03-05T18:57:41.415Z,6.15
2023-03-05T19:00:08.690Z,5.32
2023-03-05T19:02:35.409Z,5.57
2023-03-05T19:05:02.827Z,4.68
2023-03-05T19:07:30.772Z,4.53
2023-03-05T19:10:03.533Z,4.60
2023-03-05T19:12:35.220Z,4.88
2023-03-05T19:15:02.858Z,5.68
2023-03-05T19:17:31.249Z,6.05
2023-03-05T19:19:59.728Z,5.40
2023-03-05T19:22:27.163Z,3.28
2023-03-05T19:24:54.307Z,3.88
2023-03-05T19:27:39.089Z,3.47
2023-03-05T19:30:06.709Z,4.05
2023-03-05T19:32:33.537Z,3.40
2023-03-05T19:35:00.170Z,2.97
2023-03-05T19:37:28.051Z,2.53
2023-03-05T19:39:54.677Z,2.65
2023-03-05T19:42:23.681Z,3.30
2023-03-05T19:44:50.648Z,2.92
2023-03-05T19:47:17.265Z,2.75
2023-03-05T19:49:43.887Z,2.47
2023-03-05T19:52:10.502Z,3.20
2023-03-05T19:54:37.098Z,2.70
2023-03-05T19:57:03.836Z,2.67
2023-03-05T19:59:30.472Z,4.53
2023-03-05T20:01:57.526Z,3.15
2023-03-05T20:04:25.399Z,3.13
2023-03-05T20:06:54.122Z,2.63
2023-03-05T20:09:20.957Z,2.45
2023-03-05T20:11:51.227Z,3.25
2023-03-05T20:14:17.908Z,3.13
2023-03-05T20:16:44.622Z,3.55
2023-03-05T20:19:17.421Z,3.20
2023-03-05T20:21:45.258Z,3.70
2023-03-05T20:24:17.214Z,3.60
2023-03-05T20:26:45.538Z,4.00
2023-03-05T20:29:17.472Z,3.60
2023-03-05T20:31:44.804Z,3.92
2023-03-05T20:34:18.357Z,3.22
2023-03-05T20:36:45.743Z,3.88
2023-03-05T20:39:12.813Z,2.90
2023-03-05T20:41:40.241Z,3.20
2023-03-05T20:44:07.952Z,3.72
2023-03-05T20:46:39.403Z,3.95
2023-03-05T20:49:06.166Z,4.60
2023-03-05T20:51:35.877Z,4.50
2023-03-05T20:54:05.661Z,3.63
2023-03-05T20:56:33.970Z,6.32
2023-03-05T20:59:04.514Z,3.58
2023-03-05T21:01:34.626Z,3.35
2023-03-05T21:04:02.079Z,4.00
2023-03-05T21:06:30.960Z,4.45
2023-03-05T21:08:58.041Z,4.38
2023-03-05T21:11:26.650Z,4.43
2023-03-05T21:13:54.430Z,4.63
2023-03-05T21:16:23.757Z,3.60
2023-03-05T21:18:51.513Z,4.80
2023-03-05T21:21:18.821Z,3.75
2023-03-05T21:23:45.788Z,4.03
2023-03-05T21:26:15.733Z,4.22
2023-03-05T21:28:42.511Z,4.13
2023-03-05T21:31:15.205Z,3.88
2023-03-05T21:33:42.488Z,3.75
2023-03-05T21:36:09.606Z,4.18
2023-03-05T21:38:36.315Z,2.85
2023-03-05T21:41:05.127Z,3.90
2023-03-05T21:43:34.988Z,4.25
2023-03-05T21:46:03.191Z,4.10
2023-03-05T21:48:30.859Z,3.55
2023-03-05T21:50:58.440Z,3.92
2023-03-05T21:53:25.911Z,5.18
2023-03-05T21:56:07.876Z,4.20
2023-03-05T21:58:35.160Z,3.70
2023-03-05T22:01:02.368Z,3.72
2023-03-05T22:03:29.314Z,4.00
2023-03-05T22:05:56.568Z,4.60
2023-03-05T22:08:24.062Z,3.40
2023-03-05T22:10:51.331Z,4.35
2023-03-05T22:13:20.102Z,3.10
2023-03-05T22:15:54.878Z,3.60
2023-03-05T22:18:25.571Z,4.43
2023-03-05T22:20:52.881Z,3.65
2023-03-05T22:23:22.323Z,4.55
2023-03-05T22:26:00.370Z,3.38
2023-03-05T22:28:28.226Z,4.30
2023-03-05T22:30:55.585Z,4.32
2023-03-05T22:33:23.266Z,4.50
2023-03-05T22:35:51.144Z,3.90
2023-03-05T22:38:18.342Z,3.97
2023-03-05T22:40:47.866Z,3.67
2023-03-05T22:43:14.885Z,3.85
2023-03-05T22:45:42.360Z,3.83
2023-03-05T22:48:12.360Z,4.10
2023-03-05T22:50:41.126Z,3.53
2023-03-05T22:53:07.747Z,4.18
2023-03-05T22:55:34.530Z,3.78
2023-03-05T22:58:01.286Z,3.42
2023-03-05T23:00:28.048Z,4.07
2023-03-05T23:05:22.005Z,4.25
2023-03-05T23:07:49.307Z,4.93
2023-03-05T23:10:21.533Z,3.60
2023-03-05T23:15:24.265Z,4.25
2023-03-05T23:17:51.064Z,3.60
2023-03-05T23:20:20.873Z,3.78
2023-03-05T23:22:48.889Z,3.47
2023-03-05T23:25:16.670Z,3.92
2023-03-05T23:27:43.426Z,3.42
2023-03-05T23:30:20.747Z,3.15
2023-03-05T23:32:47.448Z,3.70
2023-03-05T23:35:15.959Z,3.10
2023-03-05T23:37:42.637Z,3.50
2023-03-05T23:40:15.317Z,2.95
2023-03-05T23:42:42.619Z,3.80
2023-03-05T23:45:11.647Z,3.08
2023-03-05T23:47:38.516Z,3.28
2023-03-05T23:50:07.631Z,2.72
2023-03-05T23:52:34.498Z,2.53
2023-03-05T23:55:01.276Z,2.70
2023-03-05T23:57:28.011Z,3.00
2023-03-05T23:59:54.663Z,2.38
